createdAt,value
2023-01-21T00:01:13.189Z,100988.16
2023-01-21T00:04:14.603Z,100984.72
2023-01-21T00:07:16.016Z,100996.06
2023-01-21T00:10:18.756Z,100992.66
2023-01-21T00:13:20.277Z,100992.66
2023-01-21T00:16:21.698Z,100986.69
2023-01-21T00:19:23.102Z,100993.69
2023-01-21T00:22:24.547Z,100986.69
2023-01-21T00:25:26.008Z,100988.38
2023-01-21T00:28:29.083Z,100991.91
2023-01-21T00:31:30.649Z,100991.84
2023-01-21T00:34:32.071Z,100996.19
2023-01-21T00:37:33.744Z,100995.31
2023-01-21T00:40:35.123Z,100995.41
2023-01-21T00:43:37.009Z,100996.28
2023-01-21T00:46:38.540Z,100999.75
2023-01-21T00:49:39.970Z,101005.81
2023-01-21T00:52:41.368Z,100997.16
2023-01-21T00:55:42.773Z,101004.94
2023-01-21T00:58:44.388Z,101007.63
2023-01-21T01:01:46.099Z,101015.34
2023-01-21T01:04:47.564Z,101020.53
2023-01-21T01:07:50.201Z,101017.88
2023-01-21T01:10:54.390Z,101027.38
2023-01-21T01:13:56.439Z,101020.41
2023-01-21T01:16:57.832Z,101026.38
2023-01-21T01:19:59.233Z,101029.78
2023-01-21T01:23:00.632Z,101031.47
2023-01-21T01:26:04.905Z,101040.13
2023-01-21T01:29:07.050Z,101048.72
2023-01-21T01:32:09.315Z,101043.63
2023-01-21T01:35:10.708Z,101056.66
2023-01-21T01:38:13.726Z,101056.72
2023-01-21T01:41:18.268Z,101054.88
2023-01-21T01:44:57.065Z,101062.53
2023-01-21T01:48:03.072Z,101067.63
2023-01-21T01:51:07.339Z,101066.72
2023-01-21T01:54:10.767Z,101070.31
2023-01-21T01:57:14.721Z,101071.91
2023-01-21T02:00:17.128Z,101075.38
2023-01-21T02:03:38.164Z,101083.13
2023-01-21T02:06:40.722Z,101086.59
2023-01-21T02:09:42.229Z,101084.00
2023-01-21T02:12:44.319Z,101090.91
2023-01-21T02:16:01.072Z,101098.72
2023-01-21T02:19:39.686Z,101105.53
2023-01-21T02:22:54.988Z,101109.75
2023-01-21T02:26:21.102Z,101111.34
2023-01-21T02:29:47.335Z,101111.31
2023-01-21T02:33:32.630Z,101115.66
2023-01-21T02:36:53.530Z,101128.66
2023-01-21T02:40:00.756Z,101116.28
2023-01-21T02:43:18.271Z,101123.09
2023-01-21T02:46:33.997Z,101127.44
2023-01-21T02:50:14.416Z,101123.09
2023-01-21T02:53:31.026Z,101135.09
2023-01-21T02:56:32.435Z,101138.38
2023-01-21T02:59:35.071Z,101135.75
2023-01-21T03:03:07.221Z,101140.94
2023-01-21T03:06:08.574Z,101139.00
2023-01-21T03:09:24.406Z,101144.09
2023-01-21T03:12:46.157Z,101149.41
2023-01-21T03:16:14.682Z,101152.00
2023-01-21T03:19:18.387Z,101149.25
2023-01-21T03:22:24.908Z,101156.94
2023-01-21T03:25:29.440Z,101156.09
2023-01-21T03:28:34.391Z,101162.09
2023-01-21T03:31:39.246Z,101160.41
2023-01-21T03:34:44.567Z,101165.41
2023-01-21T03:37:58.351Z,101171.28
2023-01-21T03:41:09.499Z,101169.56
2023-01-21T03:44:10.979Z,101159.06
2023-01-21T03:47:25.258Z,101172.91
2023-01-21T03:50:34.172Z,101169.56
2023-01-21T03:53:35.701Z,101179.06
2023-01-21T03:56:37.135Z,101175.81
2023-01-21T03:59:38.641Z,101174.09
2023-01-21T04:02:40.068Z,101180.19
2023-01-21T04:05:41.453Z,101182.03
2023-01-21T04:08:43.200Z,101182.97
2023-01-21T04:11:44.599Z,101190.81
2023-01-21T04:14:46.084Z,101194.22
2023-01-21T04:17:47.463Z,101197.78
2023-01-21T04:20:49.701Z,101197.09
2023-01-21T04:23:51.096Z,101201.50
2023-01-21T04:26:52.977Z,101199.53
2023-01-21T04:29:54.425Z,101219.31
2023-01-21T04:32:55.823Z,101215.75
2023-01-21T04:35:59.427Z,101221.00
2023-01-21T04:39:00.801Z,101229.22
2023-01-21T04:42:02.226Z,101230.84
2023-01-21T04:45:03.971Z,101241.53
2023-01-21T04:48:05.524Z,101237.97
2023-01-21T04:51:07.793Z,101235.97
2023-01-21T04:54:11.133Z,101244.38
2023-01-21T04:57:12.549Z,101244.34
2023-01-21T05:00:14.560Z,101247.50
2023-01-21T05:03:16.354Z,101250.97
2023-01-21T05:06:17.844Z,101248.34
2023-01-21T05:09:19.241Z,101253.34
2023-01-21T05:12:20.629Z,101258.44
2023-01-21T05:15:22.020Z,101255.03
2023-01-21T05:18:23.428Z,101258.59
2023-01-21T05:21:25.017Z,101265.50
2023-01-21T05:24:26.438Z,101271.53
2023-01-21T05:27:28.205Z,101267.19
2023-01-21T05:30:29.678Z,101268.84
2023-01-21T05:33:32.796Z,101273.19
2023-01-21T05:36:34.191Z,101274.75
2023-01-21T05:39:35.655Z,101290.69
2023-01-21T05:42:37.041Z,101281.41
2023-01-21T05:45:38.433Z,101291.78
2023-01-21T05:48:39.847Z,101285.63
2023-01-21T05:51:41.312Z,101293.38
2023-01-21T05:54:59.923Z,101310.66
2023-01-21T05:58:02.650Z,101312.56
2023-01-21T06:01:04.316Z,101314.25
2023-01-21T06:04:05.747Z,101321.19
2023-01-21T06:07:07.141Z,101324.63
2023-01-21T06:10:09.062Z,101320.38
2023-01-21T06:13:15.017Z,101322.84
2023-01-21T06:16:16.415Z,101327.38
2023-01-21T06:19:18.164Z,101328.25
2023-01-21T06:22:19.820Z,101330.84
2023-01-21T06:25:21.210Z,101344.63
2023-01-21T06:28:22.623Z,101348.09
2023-01-21T06:31:24.361Z,101342.19
2023-01-21T06:34:25.882Z,101350.84
2023-01-21T06:37:27.315Z,101344.50
2023-01-21T06:40:28.801Z,101358.09
2023-01-21T06:43:30.290Z,101367.88
2023-01-21T06:46:31.990Z,101369.53
2023-01-21T06:49:33.441Z,101371.19
2023-01-21T06:52:34.849Z,101375.78
2023-01-21T06:55:36.239Z,101375.22
2023-01-21T06:58:37.626Z,101375.06
2023-01-21T07:01:39.237Z,101388.06
2023-01-21T07:04:40.677Z,101377.66
2023-01-21T07:07:42.191Z,101376.84
2023-01-21T07:10:44.316Z,101379.47
2023-01-21T07:13:46.979Z,101385.34
2023-01-21T07:16:48.353Z,101401.25
2023-01-21T07:19:49.854Z,101399.41
2023-01-21T07:22:51.419Z,101399.22
2023-01-21T07:25:52.822Z,101399.59
2023-01-21T07:28:54.314Z,101406.69
2023-01-21T07:31:55.791Z,101404.28
2023-01-21T07:34:57.289Z,101410.41
2023-01-21T07:37:58.692Z,101418.53
2023-01-21T07:41:00.112Z,101418.97
2023-01-21T07:44:01.553Z,101435.66
2023-01-21T07:47:03.054Z,101426.16
2023-01-21T07:50:08.416Z,101447.88
2023-01-21T07:53:11.789Z,101435.13
2023-01-21T07:56:13.628Z,101439.88
2023-01-21T07:59:15.079Z,101446.47
2023-01-21T08:02:16.610Z,101449.63
2023-01-21T08:05:18.338Z,101451.91
2023-01-21T08:08:20.073Z,101454.69
2023-01-21T08:11:21.452Z,101450.72
2023-01-21T08:14:22.971Z,101461.13
2023-01-21T08:17:24.359Z,101457.78
2023-01-21T08:20:25.872Z,101458.00
2023-01-21T08:23:27.393Z,101451.97
2023-01-21T08:26:28.771Z,101462.59
2023-01-21T08:29:30.347Z,101457.53
2023-01-21T08:32:31.739Z,101464.03
2023-01-21T08:35:33.329Z,101461.19
2023-01-21T08:38:35.029Z,101472.13
2023-01-21T08:41:36.422Z,101459.75
2023-01-21T08:44:37.839Z,101466.13
2023-01-21T08:47:39.276Z,101470.91
2023-01-21T08:50:40.767Z,101469.00
2023-01-21T08:53:42.180Z,101472.06
2023-01-21T08:56:43.654Z,101478.72
2023-01-21T08:59:45.022Z,101478.25
2023-01-21T09:02:46.519Z,101489.19
2023-01-21T09:05:48.346Z,101486.88
2023-01-21T09:08:49.980Z,101483.31
2023-01-21T09:11:52.663Z,101475.25
2023-01-21T09:14:54.087Z,101487.00
2023-01-21T09:17:55.535Z,101488.97
2023-01-21T09:21:04.972Z,101486.13
2023-01-21T09:24:06.835Z,101492.63
2023-01-21T09:27:08.725Z,101500.47
2023-01-21T09:30:10.721Z,101506.78
2023-01-21T09:33:13.802Z,101503.47
2023-01-21T09:36:18.957Z,101506.66
2023-01-21T09:39:20.360Z,101510.38
2023-01-21T09:42:32.407Z,101515.53
2023-01-21T09:45:34.053Z,101505.75
2023-01-21T09:48:41.825Z,101508.03
2023-01-21T09:51:52.491Z,101508.09
2023-01-21T09:54:55.657Z,101510.38
2023-01-21T09:58:40.312Z,101513.44
2023-01-21T10:01:42.858Z,101516.75
2023-01-21T10:05:35.572Z,101513.25
2023-01-21T10:08:58.941Z,101511.66
2023-01-21T10:12:00.297Z,101505.53
2023-01-21T10:15:21.078Z,101509.84
2023-01-21T10:18:31.128Z,101504.59
2023-01-21T10:21:45.264Z,101507.19
2023-01-21T10:24:52.044Z,101513.25
2023-01-21T10:27:55.121Z,101511.84
2023-01-21T10:31:04.438Z,101512.53
2023-01-21T10:34:18.099Z,101512.88
2023-01-21T10:37:48.125Z,101513.59
2023-01-21T10:41:00.264Z,101511.16
2023-01-21T10:44:07.779Z,101507.28
2023-01-21T10:47:37.745Z,101506.56
2023-01-21T10:50:54.892Z,101509.44
2023-01-21T10:54:09.767Z,101511.66
2023-01-21T10:57:43.597Z,101505.94
2023-01-21T11:00:49.199Z,101506.31
2023-01-21T11:03:53.366Z,101495.16
2023-01-21T11:07:01.769Z,101505.81
2023-01-21T11:10:05.956Z,101499.81
2023-01-21T11:13:13.282Z,101500.75
2023-01-21T11:16:39.463Z,101502.56
2023-01-21T11:19:42.201Z,101495.44
2023-01-21T11:22:45.481Z,101498.03
2023-01-21T11:25:48.964Z,101505.47
2023-01-21T11:29:07.083Z,101499.84
2023-01-21T11:32:27.276Z,101509.69
2023-01-21T11:35:28.704Z,101514.09
2023-01-21T11:38:34.212Z,101518.78
2023-01-21T11:41:36.259Z,101510.59
2023-01-21T11:44:51.880Z,101524.81
2023-01-21T11:47:53.853Z,101525.72
2023-01-21T11:51:07.985Z,101518.59
2023-01-21T11:54:20.634Z,101518.38
2023-01-21T11:57:27.488Z,101513.28
2023-01-21T12:00:36.247Z,101510.03
2023-01-21T12:03:44.625Z,101519.47
2023-01-21T12:06:48.073Z,101511.31
2023-01-21T12:09:55.077Z,101513.66
2023-01-21T12:13:28.925Z,101505.88
2023-01-21T12:17:05.397Z,101503.13
2023-01-21T12:20:20.894Z,101505.09
2023-01-21T12:23:49.764Z,101498.97
2023-01-21T12:27:09.688Z,101489.53
2023-01-21T12:30:24.700Z,101495.66
2023-01-21T12:33:32.204Z,101501.63
2023-01-21T12:36:44.362Z,101489.41
2023-01-21T12:39:48.843Z,101499.91
2023-01-21T12:42:55.920Z,101494.97
2023-01-21T12:46:10.390Z,101488.97
2023-01-21T12:49:19.206Z,101484.75
2023-01-21T12:52:36.924Z,101492.13
2023-01-21T12:55:58.470Z,101495.91
2023-01-21T12:59:08.715Z,101492.50
2023-01-21T13:02:27.406Z,101500.28
2023-01-21T13:05:46.177Z,101501.69
2023-01-21T13:08:58.321Z,101505.69
2023-01-21T13:12:05.399Z,101504.09
2023-01-21T13:15:19.316Z,101499.84
2023-01-21T13:18:32.395Z,101499.91
2023-01-21T13:21:49.025Z,101495.38
2023-01-21T13:24:59.715Z,101503.94
2023-01-21T13:28:01.268Z,101501.34
2023-01-21T13:31:20.129Z,101504.72
2023-01-21T13:34:52.956Z,101504.50
2023-01-21T13:38:20.579Z,101500.13
2023-01-21T13:41:40.091Z,101507.03
2023-01-21T13:44:47.934Z,101508.84
2023-01-21T13:47:58.605Z,101509.91
2023-01-21T13:51:25.671Z,101503.38
2023-01-21T13:54:33.039Z,101506.81
2023-01-21T13:57:54.678Z,101505.88
2023-01-21T14:01:02.373Z,101501.63
2023-01-21T14:04:12.449Z,101506.84
2023-01-21T14:07:33.328Z,101511.88
2023-01-21T14:10:50.606Z,101514.47
2023-01-21T14:14:04.270Z,101525.72
2023-01-21T14:17:47.603Z,101522.25
2023-01-21T14:21:26.877Z,101529.31
2023-01-21T14:24:42.878Z,101530.09
2023-01-21T14:28:11.649Z,101542.34
2023-01-21T14:31:22.535Z,101538.59
2023-01-21T14:34:40.421Z,101539.53
2023-01-21T14:37:47.193Z,101533.34
2023-01-21T14:40:51.082Z,101534.22
2023-01-21T14:43:52.912Z,101540.34
2023-01-21T14:47:16.309Z,101541.41
2023-01-21T14:50:53.459Z,101540.41
2023-01-21T14:54:01.881Z,101542.84
2023-01-21T14:57:18.314Z,101545.75
2023-01-21T15:00:32.218Z,101552.50
2023-01-21T15:03:43.307Z,101550.88
2023-01-21T15:06:45.012Z,101536.00
2023-01-21T15:09:55.841Z,101546.31
2023-01-21T15:13:04.533Z,101541.13
2023-01-21T15:16:32.777Z,101538.81
2023-01-21T15:19:35.789Z,101545.75
2023-01-21T15:22:40.828Z,101543.88
2023-01-21T15:26:08.275Z,101546.47
2023-01-21T15:29:22.851Z,101541.03
2023-01-21T15:32:31.748Z,101545.13
2023-01-21T15:35:36.081Z,101542.63
2023-01-21T15:38:40.568Z,101541.84
2023-01-21T15:42:02.993Z,101545.25
2023-01-21T15:45:07.214Z,101549.56
2023-01-21T15:48:40.710Z,101559.84
2023-01-21T15:52:26.065Z,101556.22
2023-01-21T15:56:00.753Z,101553.66
2023-01-21T15:59:21.232Z,101556.19
2023-01-21T16:02:32.308Z,101558.84
2023-01-21T16:06:15.821Z,101559.66
2023-01-21T16:09:37.985Z,101562.31
2023-01-21T16:12:45.665Z,101564.25
2023-01-21T16:16:31.657Z,101571.03
2023-01-21T16:19:37.893Z,101567.66
2023-01-21T16:22:43.429Z,101559.84
2023-01-21T16:25:47.716Z,101578.84
2023-01-21T16:28:49.648Z,101577.09
2023-01-21T16:32:01.665Z,101576.28
2023-01-21T16:35:04.622Z,101582.34
2023-01-21T16:38:06.019Z,101578.69
2023-01-21T16:41:07.353Z,101583.94
2023-01-21T16:44:15.861Z,101573.56
2023-01-21T16:47:25.623Z,101577.91
2023-01-21T16:50:29.346Z,101578.69
2023-01-21T16:53:30.747Z,101587.28
2023-01-21T16:56:32.166Z,101595.97
2023-01-21T16:59:42.251Z,101593.38
2023-01-21T17:02:43.754Z,101590.78
2023-01-21T17:05:46.171Z,101584.75
2023-01-21T17:08:54.044Z,101596.06
2023-01-21T17:11:57.960Z,101588.34
2023-01-21T17:15:17.026Z,101588.19
2023-01-21T17:18:27.355Z,101594.41
2023-01-21T17:21:35.359Z,101594.31
2023-01-21T17:24:44.107Z,101594.41
2023-01-21T17:27:45.797Z,101587.63
2023-01-21T17:30:47.254Z,101582.69
2023-01-21T17:34:04.670Z,101595.81
2023-01-21T17:37:42.663Z,101595.03
2023-01-21T17:41:03.600Z,101602.09
2023-01-21T17:44:18.262Z,101600.22
2023-01-21T17:47:54.271Z,101603.72
2023-01-21T17:51:13.679Z,101603.09
2023-01-21T17:54:20.710Z,101601.44
2023-01-21T17:57:35.633Z,101604.00
2023-01-21T18:00:44.766Z,101604.31
2023-01-21T18:03:46.233Z,101603.59
2023-01-21T18:06:47.773Z,101602.72
2023-01-21T18:09:53.807Z,101616.47
2023-01-21T18:12:57.763Z,101611.03
2023-01-21T18:15:59.221Z,101602.56
2023-01-21T18:19:00.742Z,101607.84
2023-01-21T18:22:04.037Z,101601.81
2023-01-21T18:25:06.520Z,101603.28
2023-01-21T18:28:18.467Z,101599.53
2023-01-21T18:31:20.130Z,101597.81
2023-01-21T18:34:21.638Z,101593.22
2023-01-21T18:37:25.108Z,101591.63
2023-01-21T18:40:26.703Z,101590.84
2023-01-21T18:43:28.101Z,101593.63
2023-01-21T18:46:29.612Z,101597.69
2023-01-21T18:49:31.037Z,101599.56
2023-01-21T18:52:32.557Z,101594.88
2023-01-21T18:55:34.534Z,101603.59
2023-01-21T18:58:35.942Z,101608.72
2023-01-21T19:01:37.439Z,101601.06
2023-01-21T19:04:38.926Z,101600.94
2023-01-21T19:07:40.622Z,101611.38
2023-01-21T19:10:42.242Z,101595.75
2023-01-21T19:13:43.746Z,101595.88
2023-01-21T19:16:45.711Z,101595.31
2023-01-21T19:19:47.096Z,101597.81
2023-01-21T19:22:49.474Z,101593.44
2023-01-21T19:25:55.613Z,101585.66
2023-01-21T19:28:57.046Z,101597.75
2023-01-21T19:31:58.457Z,101596.91
2023-01-21T19:35:01.747Z,101600.22
2023-01-21T19:38:09.556Z,101602.59
2023-01-21T19:41:11.083Z,101590.47
2023-01-21T19:44:12.439Z,101595.75
2023-01-21T19:47:26.528Z,101594.88
2023-01-21T19:50:28.035Z,101600.06
2023-01-21T19:53:29.439Z,101600.94
2023-01-21T19:56:30.881Z,101601.06
2023-01-21T19:59:34.665Z,101589.69
2023-01-21T20:02:36.079Z,101588.81
2023-01-21T20:05:37.600Z,101595.41
2023-01-21T20:08:39.085Z,101587.78
2023-01-21T20:11:40.789Z,101592.97
2023-01-21T20:14:42.213Z,101593.94
2023-01-21T20:17:50.495Z,101596.41
2023-01-21T20:20:53.162Z,101598.16
2023-01-21T20:23:54.584Z,101595.53
2023-01-21T20:26:55.971Z,101596.31
2023-01-21T20:30:14.837Z,101604.84
2023-01-21T20:33:20.790Z,101592.72
2023-01-21T20:36:24.746Z,101596.22
2023-01-21T20:39:26.365Z,101589.28
2023-01-21T20:42:28.105Z,101592.81
2023-01-21T20:45:44.435Z,101603.19
2023-01-21T20:48:46.065Z,101598.06
2023-01-21T20:51:47.492Z,101601.59
2023-01-21T20:54:49.592Z,101596.41
2023-01-21T20:57:51.030Z,101592.81
2023-01-21T21:00:52.477Z,101585.19
2023-01-21T21:03:53.992Z,101592.28
2023-01-21T21:06:55.562Z,101581.84
2023-01-21T21:09:59.878Z,101587.97
2023-01-21T21:13:01.653Z,101581.91
2023-01-21T21:16:13.410Z,101584.34
2023-01-21T21:19:14.819Z,101591.13
2023-01-21T21:22:16.289Z,101588.50
2023-01-21T21:25:23.186Z,101584.16
2023-01-21T21:28:24.592Z,101580.63
2023-01-21T21:31:32.485Z,101581.50
2023-01-21T21:34:34.273Z,101579.75
2023-01-21T21:37:35.664Z,101578.75
2023-01-21T21:40:37.049Z,101570.13
2023-01-21T21:43:41.411Z,101563.34
2023-01-21T21:47:01.967Z,101567.88
2023-01-21T21:50:03.662Z,101559.84
2023-01-21T21:53:05.111Z,101557.50
2023-01-21T21:56:15.268Z,101560.00
2023-01-21T21:59:16.671Z,101555.75
2023-01-21T22:02:19.207Z,101559.34
2023-01-21T22:05:20.770Z,101557.56
2023-01-21T22:08:22.385Z,101552.31
2023-01-21T22:11:24.462Z,101546.47
2023-01-21T22:14:25.873Z,101549.13
2023-01-21T22:17:27.580Z,101551.72
2023-01-21T22:20:28.991Z,101539.44
2023-01-21T22:23:31.847Z,101544.44
2023-01-21T22:26:35.587Z,101529.88
2023-01-21T22:29:36.952Z,101535.78
2023-01-21T22:32:38.337Z,101527.84
2023-01-21T22:35:40.355Z,101524.31
2023-01-21T22:38:42.503Z,101527.00
2023-01-21T22:41:44.097Z,101521.72
2023-01-21T22:44:45.551Z,101514.75
2023-01-21T22:47:46.921Z,101515.66
2023-01-21T22:50:56.141Z,101514.75
2023-01-21T22:53:59.945Z,101509.69
2023-01-21T22:57:01.347Z,101500.91
2023-01-21T23:00:03.872Z,101502.69
2023-01-21T23:03:07.196Z,101503.50
2023-01-21T23:06:08.619Z,101493.13
2023-01-21T23:09:14.889Z,101500.91
2023-01-21T23:12:19.166Z,101500.03
2023-01-21T23:15:22.071Z,101494.84
2023-01-21T23:18:25.683Z,101495.03
2023-01-21T23:21:27.081Z,101489.66
2023-01-21T23:24:28.495Z,101482.66
2023-01-21T23:27:29.879Z,101485.19
2023-01-21T23:30:32.875Z,101476.56
2023-01-21T23:33:35.056Z,101480.00
2023-01-21T23:36:36.445Z,101474.13
2023-01-21T23:39:38.079Z,101474.97
2023-01-21T23:42:39.458Z,101463.75
2023-01-21T23:45:40.837Z,101463.72
2023-01-21T23:48:42.507Z,101470.56
2023-01-21T23:51:44.716Z,101469.75
2023-01-21T23:54:46.270Z,101460.31
2023-01-21T23:57:47.673Z,101460.31
